Time;durP1;ratioP1;P1;durP2;ratioP2;P2;SDS_P1;SDS_P2;PMS_P1;PMS_P2;Temp;Humidity;BMP_temperature;BMP_pressure;BME280_temperature;BME280_humidity;BME280_pressure;Samples;Min_cycle;Max_cycle;Signal;HPM_P1;HPM_P2
2022/09/12 00:00:48;;;;;;;14.25;12.35;;;14.70;99.90;;;;;;4824432;29;20153;-79
2022/09/12 00:03:14;;;;;;;15.23;13.15;;;14.70;99.90;;;;;;4807786;29;20046;-79
2022/09/12 00:05:42;;;;;;;14.18;12.45;;;14.60;99.90;;;;;;4811157;29;20145;-79
2022/09/12 00:08:08;;;;;;;13.88;12.38;;;14.60;99.90;;;;;;4811329;29;20047;-79
2022/09/12 00:10:38;;;;;;;14.45;12.93;;;14.60;99.90;;;;;;4811440;29;20054;-79
2022/09/12 00:13:04;;;;;;;14.35;12.82;;;14.50;99.90;;;;;;4827719;29;20063;-79
2022/09/12 00:15:30;;;;;;;14.38;12.88;;;14.60;99.90;;;;;;4811493;29;20080;-79
2022/09/12 00:17:55;;;;;;;15.18;13.48;;;14.60;99.90;;;;;;4811234;29;20411;-79
2022/09/12 00:20:21;;;;;;;15.63;13.90;;;14.60;99.90;;;;;;4811093;29;20145;-79
2022/09/12 00:22:47;;;;;;;17.35;14.00;;;14.50;99.90;;;;;;4811535;29;20061;-78
2022/09/12 00:25:12;;;;;;;16.45;13.43;;;14.50;99.90;;;;;;4811439;29;20087;-79
2022/09/12 00:27:38;;;;;;;15.43;13.30;;;14.50;99.90;;;;;;4827375;29;20137;-79
2022/09/12 00:30:04;;;;;;;14.20;12.57;;;14.60;99.90;;;;;;4811257;29;20206;-79
2022/09/12 00:32:33;;;;;;;14.07;12.63;;;14.50;99.90;;;;;;4811241;29;20058;-79
2022/09/12 00:34:58;;;;;;;17.20;14.38;;;14.50;99.90;;;;;;4810985;29;20053;-79
2022/09/12 00:37:24;;;;;;;15.57;13.98;;;14.40;99.90;;;;;;4810874;29;20050;-79
2022/09/12 00:39:49;;;;;;;15.95;14.35;;;14.40;99.90;;;;;;4810955;29;20059;-79
2022/09/12 00:42:15;;;;;;;15.27;13.77;;;14.40;99.90;;;;;;4811066;29;20039;-79
2022/09/12 00:44:45;;;;;;;16.13;14.43;;;14.40;99.90;;;;;;4810922;29;20387;-79
2022/09/12 00:47:21;;;;;;;17.08;15.27;;;14.40;99.90;;;;;;4810747;29;20069;-79
2022/09/12 00:50:04;;;;;;;17.58;15.77;;;14.40;99.90;;;;;;4810925;29;20046;-79
2022/09/12 00:53:03;;;;;;;18.67;15.43;;;14.40;99.90;;;;;;4810768;29;20054;-79
2022/09/12 00:55:39;;;;;;;17.67;15.77;;;14.40;99.90;;;;;;4800520;29;20403;-79
2022/09/12 00:58:18;;;;;;;19.35;16.17;;;14.40;99.90;;;;;;4810868;29;20055;-79
2022/09/12 01:00:44;;;;;;;19.20;15.77;;;14.40;99.90;;;;;;4810805;29;20505;-79
2022/09/12 01:03:15;;;;;;;17.85;16.05;;;14.40;99.90;;;;;;4826784;29;20046;-79
2022/09/12 01:05:52;;;;;;;18.38;15.38;;;14.40;99.90;;;;;;4810532;29;20142;-79
2022/09/12 01:08:19;;;;;;;18.27;16.33;;;14.30;99.90;;;;;;4810634;29;20050;-79
2022/09/12 01:10:45;;;;;;;18.35;16.38;;;14.30;99.90;;;;;;4810364;29;20069;-79
2022/09/12 01:13:11;;;;;;;20.65;17.48;;;14.30;99.90;;;;;;4810336;29;20133;-79
2022/09/12 01:15:38;;;;;;;17.88;16.08;;;14.30;99.90;;;;;;4809856;29;20495;-79
2022/09/12 01:18:12;;;;;;;19.30;16.85;;;14.30;99.90;;;;;;4810082;29;20058;-79
2022/09/12 01:20:41;;;;;;;19.02;16.00;;;14.30;99.90;;;;;;4810136;29;20054;-79
2022/09/12 01:23:31;;;;;;;19.83;16.67;;;14.30;99.90;;;;;;4810222;29;20195;-79
2022/09/12 01:26:27;;;;;;;18.42;16.52;;;14.30;99.90;;;;;;4810063;29;20453;-79
2022/09/12 01:29:02;;;;;;;18.02;16.13;;;14.30;99.90;;;;;;4810206;29;20483;-79
2022/09/12 01:31:52;;;;;;;17.65;15.75;;;14.20;99.90;;;;;;4809949;29;20384;-79
2022/09/12 01:34:32;;;;;;;20.73;16.05;;;14.30;99.90;;;;;;4810050;29;20059;-79
2022/09/12 01:37:13;;;;;;;18.75;16.55;;;14.30;99.90;;;;;;4810169;29;20084;-79
2022/09/12 01:39:49;;;;;;;21.17;16.90;;;14.20;99.90;;;;;;4810127;29;20506;-79
2022/09/12 01:42:23;;;;;;;19.45;17.20;;;14.20;99.90;;;;;;4826394;29;20050;-79
2022/09/12 01:45:01;;;;;;;20.27;17.08;;;14.20;99.90;;;;;;4809812;29;20506;-78
2022/09/12 01:47:38;;;;;;;19.92;17.70;;;14.20;99.90;;;;;;4809701;29;20050;-78
2022/09/12 01:50:14;;;;;;;19.42;16.45;;;14.20;99.90;;;;;;4809750;29;20053;-78
2022/09/12 01:52:53;;;;;;;21.42;18.05;;;14.20;99.90;;;;;;4809989;29;20085;-78
2022/09/12 01:55:30;;;;;;;18.58;16.58;;;14.20;99.90;;;;;;4809704;29;20137;-78
2022/09/12 01:58:14;;;;;;;18.83;16.52;;;14.10;99.90;;;;;;4825955;29;20069;-79
2022/09/12 02:01:03;;;;;;;19.90;16.85;;;14.10;99.90;;;;;;4825817;29;20414;-79
2022/09/12 02:03:48;;;;;;;19.08;16.98;;;14.10;99.90;;;;;;4809541;29;20054;-78
2022/09/12 02:06:19;;;;;;;19.67;17.48;;;14.10;99.90;;;;;;4825617;29;20046;-79
2022/09/12 02:08:51;;;;;;;19.08;16.90;;;14.10;99.90;;;;;;4809461;29;20062;-79
2022/09/12 02:11:18;;;;;;;19.17;16.60;;;14.00;99.90;;;;;;4809440;29;20170;-79
2022/09/12 02:13:54;;;;;;;21.10;18.50;;;14.00;99.90;;;;;;4809544;29;20062;-79
2022/09/12 02:16:20;;;;;;;20.48;17.63;;;14.00;99.90;;;;;;4809268;29;20085;-79
2022/09/12 02:18:54;;;;;;;22.40;18.52;;;14.00;99.90;;;;;;4809245;29;20077;-79
2022/09/12 02:21:23;;;;;;;20.17;17.30;;;14.00;99.90;;;;;;4809053;29;20058;-79
2022/09/12 02:23:57;;;;;;;19.05;17.05;;;14.00;99.90;;;;;;4809244;29;20050;-79
2022/09/12 02:26:30;;;;;;;24.55;18.27;;;14.00;99.90;;;;;;4809324;29;20057;-79
2022/09/12 02:28:56;;;;;;;20.33;17.70;;;14.00;99.90;;;;;;4809284;29;20046;-79
2022/09/12 02:31:45;;;;;;;20.30;18.02;;;14.00;99.90;;;;;;4809256;29;20054;-79
2022/09/12 02:34:48;;;;;;;21.83;17.13;;;13.90;99.90;;;;;;4809350;29;20050;-79
2022/09/12 02:37:51;;;;;;;24.98;19.17;;;14.00;99.90;;;;;;4808642;29;20412;-79
2022/09/12 02:40:17;;;;;;;21.00;18.30;;;14.00;99.90;;;;;;4808920;29;20142;-79
2022/09/12 02:42:43;;;;;;;21.05;17.98;;;13.90;99.90;;;;;;4808877;29;20049;-79
2022/09/12 02:45:10;;;;;;;21.80;18.77;;;13.90;99.90;;;;;;4825326;29;20047;-79
2022/09/12 02:48:08;;;;;;;21.02;18.13;;;13.90;99.90;;;;;;4808570;29;20056;-79
2022/09/12 02:50:34;;;;;;;20.58;18.20;;;13.90;99.90;;;;;;4790580;29;20068;-79
2022/09/12 02:53:03;;;;;;;20.70;18.60;;;13.90;99.90;;;;;;4808946;29;20061;-79
2022/09/12 02:55:32;;;;;;;21.17;18.30;;;13.90;99.90;;;;;;4808761;29;20091;-79
2022/09/12 02:57:59;;;;;;;22.55;18.45;;;13.80;99.90;;;;;;4808720;29;20042;-79
2022/09/12 03:00:25;;;;;;;22.38;18.23;;;13.90;99.90;;;;;;4824958;29;20065;-79
2022/09/12 03:03:06;;;;;;;22.98;19.23;;;13.80;99.90;;;;;;4808592;29;20047;-79
2022/09/12 03:05:51;;;;;;;20.55;17.95;;;13.80;99.90;;;;;;4808514;29;20403;-78
2022/09/12 03:08:57;;;;;;;22.98;18.15;;;13.80;99.90;;;;;;4808435;29;20092;-78
2022/09/12 03:11:44;;;;;;;21.30;17.90;;;13.80;99.90;;;;;;4808682;29;20058;-79
2022/09/12 03:14:15;;;;;;;22.52;18.48;;;13.80;99.90;;;;;;4808467;29;20054;-78
2022/09/12 03:17:18;;;;;;;20.40;17.80;;;13.70;99.90;;;;;;4808725;29;20499;-79
2022/09/12 03:19:59;;;;;;;20.15;17.33;;;13.80;99.90;;;;;;4808393;29;20070;-78
2022/09/12 03:22:38;;;;;;;21.10;17.13;;;13.70;99.90;;;;;;4808391;29;20411;-78
2022/09/12 03:25:27;;;;;;;23.80;18.35;;;13.70;99.90;;;;;;4808399;29;20081;-78
2022/09/12 03:28:08;;;;;;;21.58;17.52;;;13.80;99.90;;;;;;4808209;29;20054;-78
2022/09/12 03:30:42;;;;;;;20.30;17.98;;;13.70;99.90;;;;;;4808312;29;20137;-79
2022/09/12 03:33:13;;;;;;;20.23;17.30;;;13.70;99.90;;;;;;4808498;29;20062;-78
2022/09/12 03:35:39;;;;;;;20.58;17.42;;;13.70;99.90;;;;;;4808081;29;20038;-78
2022/09/12 03:38:06;;;;;;;20.02;17.70;;;13.70;99.90;;;;;;4824461;29;20054;-79
2022/09/12 03:40:33;;;;;;;19.52;17.50;;;13.70;99.90;;;;;;4811439;29;20385;-79
2022/09/12 03:42:59;;;;;;;23.00;19.08;;;13.70;99.90;;;;;;4812111;29;20093;-79
2022/09/12 03:45:24;;;;;;;19.73;17.55;;;13.70;99.90;;;;;;4828335;29;20472;-79
2022/09/12 03:47:50;;;;;;;20.98;17.70;;;13.70;99.90;;;;;;4811835;29;20054;-79
2022/09/12 03:50:16;;;;;;;22.25;18.35;;;13.60;99.90;;;;;;4811558;29;20073;-79
2022/09/12 03:52:41;;;;;;;21.67;19.33;;;13.70;99.90;;;;;;4811899;29;20081;-79
2022/09/12 03:55:08;;;;;;;21.83;19.08;;;13.60;99.90;;;;;;4811680;29;20442;-79
2022/09/12 03:57:34;;;;;;;23.08;19.70;;;13.60;99.90;;;;;;4811639;29;20564;-79
2022/09/12 04:00:00;;;;;;;21.75;17.90;;;13.60;99.90;;;;;;4811650;29;20050;-79
2022/09/12 04:02:27;;;;;;;24.45;18.98;;;13.60;99.90;;;;;;4811533;29;20062;-79
2022/09/12 04:04:52;;;;;;;21.30;18.42;;;13.60;99.90;;;;;;4811312;29;20499;-79
2022/09/12 04:07:18;;;;;;;21.55;19.00;;;13.60;99.90;;;;;;4827568;29;20061;-79
2022/09/12 04:09:44;;;;;;;25.92;19.67;;;13.60;99.90;;;;;;4811403;29;20061;-79
2022/09/12 04:12:10;;;;;;;22.42;19.70;;;13.60;99.90;;;;;;4827737;29;20050;-79
2022/09/12 04:14:36;;;;;;;24.13;20.25;;;13.60;99.90;;;;;;4827447;29;20054;-79
2022/09/12 04:17:01;;;;;;;27.80;20.52;;;13.60;99.90;;;;;;4811316;29;20050;-79
2022/09/12 04:19:27;;;;;;;26.27;19.95;;;13.60;99.90;;;;;;4811248;29;20544;-79
2022/09/12 04:21:53;;;;;;;22.05;19.10;;;13.60;99.90;;;;;;4827475;29;20058;-79
2022/09/12 04:24:18;;;;;;;23.83;20.60;;;13.70;99.90;;;;;;4811440;29;20052;-79
2022/09/12 04:26:44;;;;;;;28.30;20.25;;;13.70;99.90;;;;;;4811156;29;20043;-79
2022/09/12 04:29:13;;;;;;;24.00;20.60;;;13.70;99.90;;;;;;4827425;29;20046;-79
2022/09/12 04:31:40;;;;;;;23.95;19.88;;;13.70;99.90;;;;;;4827908;29;20080;-79
2022/09/12 04:34:06;;;;;;;23.85;19.95;;;13.80;99.90;;;;;;4827419;29;20049;-78
2022/09/12 04:36:33;;;;;;;22.33;19.83;;;13.70;99.90;;;;;;4810992;29;20046;-79
2022/09/12 04:39:00;;;;;;;26.58;20.15;;;13.70;99.90;;;;;;4827287;29;20158;-79
2022/09/12 04:41:29;;;;;;;26.48;19.77;;;13.80;99.90;;;;;;4810960;29;20061;-79
2022/09/12 04:44:00;;;;;;;24.35;20.02;;;13.70;99.90;;;;;;4827136;29;20061;-79
2022/09/12 04:46:26;;;;;;;23.75;19.27;;;13.80;99.90;;;;;;4810565;29;20054;-79
2022/09/12 04:48:51;;;;;;;24.85;20.17;;;13.80;99.90;;;;;;4809958;29;20065;-78
2022/09/12 04:51:20;;;;;;;28.50;20.25;;;13.80;99.90;;;;;;4809166;29;20054;-78
2022/09/12 04:53:51;;;;;;;28.15;21.58;;;13.80;99.90;;;;;;4810646;29;20059;-78
2022/09/12 04:56:18;;;;;;;29.67;20.70;;;13.90;99.90;;;;;;4810459;29;20436;-78
2022/09/12 04:58:44;;;;;;;27.55;22.20;;;13.90;99.90;;;;;;4810398;29;20050;-79
2022/09/12 05:01:12;;;;;;;29.33;21.88;;;13.90;99.90;;;;;;4810584;29;20133;-79
2022/09/12 05:03:39;;;;;;;28.15;21.00;;;14.00;99.90;;;;;;4810304;29;20560;-79
2022/09/12 05:06:10;;;;;;;30.02;22.63;;;14.00;99.90;;;;;;4810376;29;20407;-79
2022/09/12 05:08:36;;;;;;;29.55;22.25;;;14.10;99.90;;;;;;4826486;29;20460;-79
2022/09/12 05:11:22;;;;;;;28.52;21.92;;;14.10;99.90;;;;;;4810398;29;20046;-79
2022/09/12 05:13:49;;;;;;;28.00;21.83;;;14.20;99.90;;;;;;4810269;29;20065;-79
2022/09/12 05:16:16;;;;;;;27.15;21.90;;;14.20;99.90;;;;;;4826416;29;20602;-79
2022/09/12 05:18:45;;;;;;;25.65;20.27;;;14.30;99.90;;;;;;4810390;29;20058;-79
2022/09/12 05:21:14;;;;;;;26.98;20.40;;;14.20;99.90;;;;;;4810353;29;20110;-79
2022/09/12 05:23:40;;;;;;;30.10;20.77;;;14.30;99.90;;;;;;4810238;29;20081;-79
2022/09/12 05:26:10;;;;;;;27.92;20.88;;;14.30;99.90;;;;;;4809972;29;20403;-79
2022/09/12 05:28:37;;;;;;;27.23;20.92;;;14.30;99.90;;;;;;4810598;29;20042;-79
2022/09/12 05:31:03;;;;;;;27.70;20.15;;;14.30;99.90;;;;;;4809982;29;20058;-79
2022/09/12 05:33:29;;;;;;;23.90;19.77;;;14.40;99.90;;;;;;4809873;29;20047;-78
2022/09/12 05:35:55;;;;;;;25.65;20.02;;;14.40;99.90;;;;;;4810029;29;20086;-79
2022/09/12 05:38:23;;;;;;;24.77;19.17;;;14.40;99.90;;;;;;4809948;29;20066;-78
2022/09/12 05:40:49;;;;;;;26.85;20.30;;;14.40;99.90;;;;;;4809933;29;20054;-79
2022/09/12 05:43:15;;;;;;;28.23;20.45;;;14.40;99.90;;;;;;4809981;29;20079;-79
2022/09/12 05:45:41;;;;;;;26.42;19.63;;;14.40;99.90;;;;;;4809753;29;20047;-79
2022/09/12 05:48:07;;;;;;;25.30;19.33;;;14.50;99.90;;;;;;4825832;29;20398;-79
2022/09/12 05:50:32;;;;;;;26.67;20.20;;;14.40;99.90;;;;;;4809598;29;20050;-79
2022/09/12 05:52:58;;;;;;;25.15;19.23;;;14.50;99.90;;;;;;4809498;29;20085;-79
2022/09/12 05:55:24;;;;;;;26.88;19.02;;;14.50;99.90;;;;;;4825816;29;20495;-79
2022/09/12 05:57:50;;;;;;;26.45;20.20;;;14.50;99.90;;;;;;4809382;29;20054;-79
2022/09/12 06:00:17;;;;;;;25.20;18.55;;;14.50;99.90;;;;;;4809401;29;20547;-79
2022/09/12 06:02:43;;;;;;;23.90;19.08;;;14.60;99.90;;;;;;4825439;29;20089;-79
2022/09/12 06:05:09;;;;;;;27.27;19.83;;;14.70;99.90;;;;;;4809324;29;20078;-79
2022/09/12 06:07:35;;;;;;;24.70;19.33;;;14.70;99.90;;;;;;4809351;29;20131;-79
2022/09/12 06:10:02;;;;;;;25.33;19.25;;;14.70;99.90;;;;;;4809315;29;20407;-79
2022/09/12 06:12:28;;;;;;;25.02;19.58;;;14.70;99.90;;;;;;4809514;29;20054;-79
2022/09/12 06:14:54;;;;;;;24.95;19.52;;;14.80;99.90;;;;;;4809142;29;20503;-79
2022/09/12 06:17:21;;;;;;;27.33;20.05;;;14.70;99.90;;;;;;4809355;29;20058;-79
2022/09/12 06:19:48;;;;;;;23.55;18.42;;;14.80;99.90;;;;;;4808695;29;20062;-79
2022/09/12 06:22:15;;;;;;;24.25;19.05;;;14.90;99.90;;;;;;4825349;29;20517;-79
2022/09/12 06:24:40;;;;;;;24.85;18.95;;;14.80;99.90;;;;;;4809203;29;20080;-79
2022/09/12 06:27:06;;;;;;;27.48;19.88;;;14.90;99.90;;;;;;4809006;29;20479;-79
2022/09/12 06:29:31;;;;;;;24.75;18.75;;;14.90;99.90;;;;;;4825269;29;20520;-79
2022/09/12 06:31:57;;;;;;;25.95;19.15;;;14.90;99.90;;;;;;4809282;29;20060;-79
2022/09/12 06:34:25;;;;;;;26.95;19.35;;;14.90;99.90;;;;;;4808970;29;20129;-79
2022/09/12 06:36:51;;;;;;;27.33;20.40;;;15.00;99.90;;;;;;4808831;29;20055;-79
2022/09/12 06:39:19;;;;;;;26.55;19.45;;;15.00;99.90;;;;;;4809053;29;20066;-79
2022/09/12 06:41:46;;;;;;;26.25;19.95;;;15.00;99.90;;;;;;4825390;29;20042;-79
2022/09/12 06:44:15;;;;;;;28.30;19.75;;;15.10;99.90;;;;;;4809006;29;20060;-79
2022/09/12 06:46:41;;;;;;;29.05;20.52;;;15.10;99.90;;;;;;4808575;29;20050;-80
2022/09/12 06:49:07;;;;;;;24.48;18.65;;;15.00;99.90;;;;;;4808902;29;20488;-80
2022/09/12 06:51:35;;;;;;;25.00;19.50;;;15.10;99.90;;;;;;4808577;29;20490;-79
2022/09/12 06:54:01;;;;;;;26.08;19.48;;;15.10;99.90;;;;;;4808385;29;20054;-79
2022/09/12 06:56:27;;;;;;;25.58;19.63;;;15.30;99.90;;;;;;4808663;29;20054;-79
2022/09/12 06:58:55;;;;;;;27.35;19.33;;;15.30;99.90;;;;;;4808484;29;20077;-79
2022/09/12 07:01:23;;;;;;;26.95;18.92;;;15.30;99.90;;;;;;4824990;29;20122;-80
2022/09/12 07:03:54;;;;;;;29.52;20.13;;;15.40;99.90;;;;;;4808541;29;20460;-79
2022/09/12 07:06:28;;;;;;;27.60;19.70;;;15.40;99.90;;;;;;4807313;29;20081;-79
2022/09/12 07:08:55;;;;;;;25.75;18.73;;;15.50;99.90;;;;;;4808172;29;20418;-79
2022/09/12 07:11:23;;;;;;;25.02;19.63;;;15.50;99.90;;;;;;4808197;29;20051;-79
2022/09/12 07:13:51;;;;;;;25.88;19.27;;;15.50;99.90;;;;;;4824206;29;20081;-79
2022/09/12 07:16:17;;;;;;;27.60;20.58;;;15.50;99.90;;;;;;4808260;29;20449;-79
2022/09/12 07:18:45;;;;;;;28.55;19.23;;;15.60;99.90;;;;;;4808081;29;20080;-78
2022/09/12 07:21:13;;;;;;;25.35;19.60;;;15.70;99.90;;;;;;4807850;29;20101;-79
2022/09/12 07:23:40;;;;;;;27.08;20.08;;;15.70;99.90;;;;;;4807993;29;20091;-79
2022/09/12 07:26:08;;;;;;;29.85;21.85;;;15.70;99.90;;;;;;4808027;29;20121;-78
2022/09/12 07:28:35;;;;;;;28.20;21.23;;;15.70;99.90;;;;;;4807673;29;20114;-78
2022/09/12 07:31:08;;;;;;;27.80;20.20;;;15.80;99.90;;;;;;4807933;29;20503;-79
2022/09/12 07:33:34;;;;;;;29.35;21.05;;;15.90;99.90;;;;;;4808301;29;20046;-81
2022/09/12 07:36:04;;;;;;;28.58;21.13;;;15.90;99.90;;;;;;4808111;29;20050;-79
2022/09/12 07:38:30;;;;;;;31.23;21.58;;;15.90;99.90;;;;;;4807673;29;20500;-78
2022/09/12 07:40:56;;;;;;;30.77;22.15;;;15.90;99.90;;;;;;4808046;29;20058;-80
2022/09/12 07:43:22;;;;;;;29.42;22.10;;;15.90;99.90;;;;;;4807974;29;20045;-80
2022/09/12 07:45:47;;;;;;;29.58;22.40;;;16.00;99.90;;;;;;4808005;29;20491;-79
2022/09/12 07:48:13;;;;;;;30.73;23.08;;;16.00;99.90;;;;;;4807762;29;20142;-79
2022/09/12 07:50:39;;;;;;;30.75;23.30;;;16.00;99.90;;;;;;4807690;29;20415;-78
2022/09/12 07:53:05;;;;;;;32.13;22.25;;;16.10;99.90;;;;;;4807682;29;20050;-79
2022/09/12 07:55:31;;;;;;;30.77;22.42;;;16.10;99.90;;;;;;4807723;29;20101;-80
2022/09/12 07:57:57;;;;;;;35.90;24.55;;;16.20;99.90;;;;;;4824248;29;20035;-80
2022/09/12 08:00:24;;;;;;;33.22;23.40;;;16.20;99.90;;;;;;4807484;29;20061;-82
2022/09/12 08:02:51;;;;;;;34.42;25.13;;;16.20;99.90;;;;;;4807270;29;20054;-81
2022/09/12 08:05:18;;;;;;;37.22;26.85;;;16.20;99.90;;;;;;4807899;29;20501;-81
2022/09/12 08:07:43;;;;;;;38.80;26.15;;;16.30;99.90;;;;;;4823224;29;20491;-81
2022/09/12 08:10:09;;;;;;;43.92;28.75;;;16.30;99.90;;;;;;4807174;29;20076;-79
2022/09/12 08:12:37;;;;;;;39.75;27.38;;;16.40;99.90;;;;;;4807230;29;20085;-80
2022/09/12 08:15:02;;;;;;;43.20;28.83;;;16.40;99.90;;;;;;4823528;29;20064;-81
2022/09/12 08:17:28;;;;;;;35.38;25.15;;;16.50;99.90;;;;;;4823577;29;20054;-81
2022/09/12 08:19:55;;;;;;;45.72;30.02;;;16.50;99.90;;;;;;4823403;29;20058;-79
2022/09/12 08:22:21;;;;;;;45.20;29.65;;;16.60;99.90;;;;;;4807289;29;20096;-80
2022/09/12 08:24:47;;;;;;;46.40;30.65;;;16.70;99.90;;;;;;4823552;29;20074;-80
2022/09/12 08:27:14;;;;;;;45.63;30.48;;;16.80;99.90;;;;;;4810489;29;20133;-81
2022/09/12 08:29:40;;;;;;;50.92;33.03;;;16.90;99.90;;;;;;4810652;29;20049;-80
2022/09/12 08:32:05;;;;;;;45.92;30.60;;;16.90;99.90;;;;;;4810641;29;20059;-81
2022/09/12 08:34:31;;;;;;;43.15;29.40;;;16.90;99.90;;;;;;4810655;29;20130;-81
2022/09/12 08:36:57;;;;;;;51.35;32.38;;;17.00;99.90;;;;;;4811237;29;20057;-80
2022/09/12 08:39:23;;;;;;;45.50;31.52;;;17.00;99.90;;;;;;4810551;29;20100;-80
2022/09/12 08:42:00;;;;;;;48.15;30.20;;;17.00;99.90;;;;;;4810863;29;20062;-80
2022/09/12 08:44:44;;;;;;;51.00;32.72;;;17.20;99.90;;;;;;4826793;29;20050;-80
2022/09/12 08:47:27;;;;;;;55.17;33.00;;;17.20;99.90;;;;;;4810360;29;20050;-80
2022/09/12 08:50:00;;;;;;;;;;;17.20;99.90;;;;;;4810365;29;20145;-80
2022/09/12 08:52:51;;;;;;;50.38;32.03;;;17.30;99.90;;;;;;4810187;29;19929;-81
2022/09/12 08:55:37;;;;;;;48.20;31.63;;;17.30;99.90;;;;;;4810601;29;20046;-81
2022/09/12 08:58:23;;;;;;;48.38;31.10;;;17.30;99.90;;;;;;4810512;29;20046;-81
2022/09/12 09:01:06;;;;;;;46.13;29.92;;;17.40;99.90;;;;;;4810261;29;20517;-81
2022/09/12 09:03:53;;;;;;;48.70;31.00;;;17.50;99.90;;;;;;4807744;29;20081;-82
2022/09/12 09:06:43;;;;;;;49.83;30.85;;;17.50;99.90;;;;;;4810461;29;20097;-80
2022/09/12 09:09:26;;;;;;;44.70;29.33;;;17.60;99.90;;;;;;4810143;29;20057;-80
2022/09/12 09:12:36;;;;;;;50.15;32.17;;;17.60;99.90;;;;;;4810412;29;20095;-81
2022/09/12 09:15:20;;;;;;;50.88;33.10;;;17.70;99.90;;;;;;4822706;29;20515;-80
2022/09/12 09:18:16;;;;;;;46.45;32.08;;;17.80;99.90;;;;;;4825966;29;20071;-80
2022/09/12 09:20:51;;;;;;;52.47;34.58;;;17.90;99.90;;;;;;4824769;29;20066;-80
2022/09/12 09:23:29;;;;;;;51.95;33.67;;;18.00;99.90;;;;;;4809638;29;20050;-80
2022/09/12 09:26:13;;;;;;;51.53;34.80;;;18.20;99.90;;;;;;4809657;29;20049;-80
2022/09/12 09:28:50;;;;;;;50.47;34.78;;;18.30;99.90;;;;;;4810079;29;20088;-81
2022/09/12 09:31:21;;;;;;;48.83;34.15;;;18.50;99.90;;;;;;4809745;29;20090;-80
2022/09/12 09:33:50;;;;;;;49.83;32.53;;;18.50;99.90;;;;;;4809665;29;20058;-79
2022/09/12 09:36:36;;;;;;;51.38;33.67;;;18.60;99.90;;;;;;4809602;29;20172;-79
2022/09/12 09:39:23;;;;;;;47.42;32.50;;;18.80;99.90;;;;;;4809915;29;20418;-81
2022/09/12 09:42:28;;;;;;;48.05;32.63;;;18.90;99.90;;;;;;4825955;29;20411;-80
2022/09/12 09:44:58;;;;;;;47.35;32.22;;;19.10;99.90;;;;;;4809826;29;20142;-80
2022/09/12 09:47:24;;;;;;;47.70;30.95;;;19.20;99.90;;;;;;4809092;29;20529;-81
2022/09/12 09:49:50;;;;;;;44.92;31.60;;;19.40;99.90;;;;;;4809042;29;20126;-81
2022/09/12 09:52:23;;;;;;;46.50;31.60;;;19.50;99.90;;;;;;4808913;29;20054;-80
2022/09/12 09:54:56;;;;;;;45.33;29.60;;;19.70;99.90;;;;;;4809965;29;20058;-80
2022/09/12 09:57:34;;;;;;;44.22;29.83;;;19.80;99.90;;;;;;4809272;29;20054;-81
2022/09/12 10:00:30;;;;;;;41.97;28.48;;;19.80;99.90;;;;;;4808633;29;20046;-85
2022/09/12 10:03:08;;;;;;;44.28;28.08;;;19.80;99.90;;;;;;4823410;29;20648;-80
2022/09/12 10:05:50;;;;;;;39.47;27.58;;;19.80;99.90;;;;;;4807424;29;20058;-81
2022/09/12 10:08:22;;;;;;;38.10;26.05;;;19.80;99.90;;;;;;4808461;29;20122;-81
2022/09/12 10:11:03;;;;;;;38.67;25.90;;;19.80;99.90;;;;;;4809441;29;20055;-81
2022/09/12 10:13:41;;;;;;;39.72;25.92;;;19.80;99.90;;;;;;4808986;29;20456;-81
2022/09/12 10:16:28;;;;;;;37.03;25.05;;;19.90;99.90;;;;;;4825441;29;20142;-81
2022/09/12 10:18:56;;;;;;;35.53;22.00;;;19.90;99.90;;;;;;4808653;29;20046;-84
2022/09/12 10:21:46;;;;;;;33.20;22.45;;;20.00;99.90;;;;;;4825059;29;20486;-81
2022/09/12 10:24:33;;;;;;;29.42;18.90;;;20.20;99.90;;;;;;4825286;29;20076;-82
2022/09/12 10:27:19;;;;;;;27.08;18.05;;;20.40;99.90;;;;;;4808795;29;20415;-82
2022/09/12 10:30:13;;;;;;;27.65;19.02;;;20.60;99.90;;;;;;4808972;29;20090;-82
2022/09/12 10:32:42;;;;;;;28.98;19.00;;;20.80;99.90;;;;;;4804994;29;20476;-81
2022/09/12 10:35:18;;;;;;;26.77;17.92;;;21.00;99.90;;;;;;4825277;29;20052;-82
2022/09/12 10:37:57;;;;;;;26.55;17.88;;;21.20;99.90;;;;;;4808548;29;20567;-81
2022/09/12 10:40:28;;;;;;;29.02;18.15;;;21.20;99.90;;;;;;4808588;29;20470;-82
2022/09/12 10:42:56;;;;;;;27.30;18.38;;;21.40;99.90;;;;;;4808560;29;20058;-81
2022/09/12 10:45:27;;;;;;;27.38;18.35;;;21.40;99.90;;;;;;4808976;29;20052;-90
2022/09/12 10:47:56;;;;;;;24.48;16.35;;;21.60;99.90;;;;;;4818120;29;20057;-92
2022/09/12 10:50:47;;;;;;;22.67;15.63;;;21.70;99.90;;;;;;4811703;24;20504;-92
2022/09/12 10:53:24;;;;;;;22.98;14.82;;;21.80;99.90;;;;;;4779788;30;20055;-92
2022/09/12 10:56:18;;;;;;;20.38;13.93;;;22.00;99.90;;;;;;4876441;24;20100;-96
2022/09/12 10:59:30;;;;;;;19.60;13.38;;;22.10;99.90;;;;;;4797978;29;20058;-96
2022/09/12 11:02:00;;;;;;;19.33;13.57;;;22.20;99.90;;;;;;4793740;29;20047;-92
2022/09/12 11:04:47;;;;;;;21.85;14.27;;;22.30;99.90;;;;;;4795316;29;20288;-95
2022/09/12 11:07:42;;;;;;;23.00;14.90;;;22.30;99.90;;;;;;4794728;29;20082;-93
2022/09/12 11:11:09;;;;;;;23.10;14.55;;;22.40;99.90;;;;;;4794995;29;20080;-96
2022/09/12 11:14:01;;;;;;;19.95;13.23;;;22.50;99.90;;;;;;4800597;29;20059;-91
2022/09/12 11:17:06;;;;;;;19.65;13.43;;;22.60;99.90;;;;;;4797040;29;20070;-95
2022/09/12 11:20:30;;;;;;;21.23;12.48;;;22.60;99.90;;;;;;4795976;29;20047;-96
2022/09/12 11:24:18;;;;;;;;;;;;;;;;;;;;;
2022/09/12 11:30:14;;;;;;;18.80;11.55;;;23.00;99.90;;;;;;4964337;24;20063;-96
2022/09/12 11:35:51;;;;;;;14.65;10.48;;;23.10;99.90;;;;;;4812584;24;20050;-81
2022/09/12 11:38:42;;;;;;;14.63;9.57;;;23.00;99.90;;;;;;4790155;29;20073;-81
2022/09/12 11:41:25;;;;;;;13.98;9.05;;;23.00;99.90;;;;;;4806122;29;20062;-81
2022/09/12 11:44:13;;;;;;;13.25;8.52;;;23.10;99.90;;;;;;4789903;29;20055;-81
2022/09/12 11:46:42;;;;;;;9.93;7.25;;;23.10;99.90;;;;;;4805796;29;20051;-80
2022/09/12 11:49:14;;;;;;;11.98;7.88;;;23.30;99.90;;;;;;4789812;29;20107;-85
2022/09/12 11:52:05;;;;;;;13.02;8.80;;;23.40;99.90;;;;;;4805818;29;20508;-79
2022/09/12 11:54:59;;;;;;;13.93;9.75;;;23.50;99.90;;;;;;4806048;29;20053;-81
2022/09/12 11:57:33;;;;;;;15.27;9.85;;;23.60;99.90;;;;;;4789795;29;20055;-81
2022/09/12 12:00:02;;;;;;;17.67;10.77;;;23.70;99.90;;;;;;4806685;29;20047;-80
2022/09/12 12:02:35;;;;;;;14.40;9.52;;;23.60;99.90;;;;;;4793047;29;20402;-81
2022/09/12 12:05:16;;;;;;;14.30;9.63;;;23.80;99.90;;;;;;4809653;29;20047;-81
2022/09/12 12:07:52;;;;;;;13.32;8.82;;;23.80;99.90;;;;;;4809143;29;20157;-81
2022/09/12 12:10:43;;;;;;;13.15;8.30;;;23.70;99.90;;;;;;4793116;29;20050;-81
2022/09/12 12:13:33;;;;;;;13.23;8.32;;;23.70;99.90;;;;;;4802375;29;20058;-80
2022/09/12 12:16:13;;;;;;;12.32;8.38;;;23.70;99.90;;;;;;4792959;29;20086;-79
2022/09/12 12:18:42;;;;;;;14.02;8.82;;;23.70;99.90;;;;;;4793300;29;20129;-80
2022/09/12 12:21:27;;;;;;;13.55;9.60;;;23.70;99.90;;;;;;4792820;29;20050;-80
2022/09/12 12:24:06;;;;;;;12.20;8.15;;;23.70;99.90;;;;;;4793185;29;20055;-81
2022/09/12 12:26:37;;;;;;;13.02;8.10;;;23.80;99.90;;;;;;4792550;29;20047;-80
2022/09/12 12:29:24;;;;;;;12.65;7.82;;;23.70;99.90;;;;;;4808396;29;20054;-80
2022/09/12 12:31:58;;;;;;;13.00;9.00;;;23.60;99.90;;;;;;4798969;29;20119;-80
2022/09/12 12:34:30;;;;;;;15.93;8.07;;;23.60;99.90;;;;;;4792662;29;20065;-79
2022/09/12 12:36:57;;;;;;;;;;;23.50;99.90;;;;;;4792902;29;20419;-78
2022/09/12 12:39:31;;;;;;;12.20;8.95;;;23.40;99.90;;;;;;4808922;29;19940;-79
2022/09/12 12:41:58;;;;;;;13.60;7.97;;;23.20;99.90;;;;;;4792505;29;20046;-79
2022/09/12 12:44:42;;;;;;;10.55;8.20;;;23.30;99.90;;;;;;4808611;29;20039;-79
2022/09/12 12:47:21;;;;;;;12.18;8.32;;;23.30;99.90;;;;;;4807687;29;20403;-80
2022/09/12 12:49:54;;;;;;;14.18;9.70;;;23.20;99.90;;;;;;4792506;29;20491;-79
2022/09/12 12:52:20;;;;;;;12.77;9.00;;;23.10;99.90;;;;;;4792721;29;20503;-80
2022/09/12 12:54:46;;;;;;;11.65;8.32;;;22.90;99.90;;;;;;4792635;29;20074;-80
2022/09/12 12:57:22;;;;;;;14.82;8.90;;;22.90;99.90;;;;;;4792170;29;20051;-80
2022/09/12 12:59:54;;;;;;;12.25;8.02;;;23.00;99.90;;;;;;4792308;29;20055;-80
2022/09/12 13:02:22;;;;;;;;;;;22.90;99.90;;;;;;4808517;29;20043;-80
2022/09/12 13:04:49;;;;;;;11.23;7.25;;;22.90;99.90;;;;;;4808268;29;19925;-80
2022/09/12 13:07:29;;;;;;;10.30;7.28;;;23.00;99.90;;;;;;4782781;30;20055;-79
2022/09/12 13:09:57;;;;;;;13.77;8.60;;;23.10;99.90;;;;;;4792466;29;20052;-79